Terminal Aerodrome Forecast
Issued by NWS

Home | Current Version | Previous Version | Text Only | Print | Product List | Glossary On
Versions: 1 2 3 4 5 6 7 8 9 10 11 12 13 14 15 16 17 18
000
FTAK31 PAFA 251724
TAFAMC
TAF
PAMC 251724Z 2518/2618 VRB03KT 1/4SM FZFG VV002
     FM252000 23004KT P6SM VCFG SCT002 SCT050 BKN100
     FM252100 23004KT P6SM SCT050 BKN100=

USA.gov is the U.S. government's official web portal to all federal, state and local government web resources and services.